createdAt,value
2022-10-23T00:01:19.493Z,16.56
2022-10-23T00:03:47.547Z,16.46
2022-10-23T00:06:15.204Z,16.43
2022-10-23T00:08:42.625Z,16.46
2022-10-23T00:11:14.404Z,16.57
2022-10-23T00:13:41.530Z,16.62
2022-10-23T00:16:08.944Z,16.71
2022-10-23T00:18:36.521Z,16.59
2022-10-23T00:21:03.832Z,16.50
2022-10-23T00:23:30.873Z,16.44
2022-10-23T00:25:58.297Z,16.51
2022-10-23T00:28:25.550Z,16.62
2022-10-23T00:31:00.419Z,16.68
2022-10-23T00:33:27.613Z,16.76
2022-10-23T00:35:54.767Z,16.79
2022-10-23T00:38:22.053Z,16.73
2022-10-23T00:43:21.928Z,16.69
2022-10-23T00:45:49.048Z,16.71
2022-10-23T00:48:16.920Z,16.52
2022-10-23T00:50:44.714Z,16.47
2022-10-23T00:53:12.953Z,16.51
2022-10-23T00:55:45.895Z,16.56
2022-10-23T00:58:13.847Z,16.52
2022-10-23T01:00:43.274Z,16.40
2022-10-23T01:03:10.444Z,16.40
2022-10-23T01:06:00.728Z,16.41
2022-10-23T01:08:31.064Z,16.30
2022-10-23T01:11:10.471Z,16.35
2022-10-23T01:13:51.241Z,16.32
2022-10-23T01:16:47.956Z,16.37
2022-10-23T01:19:25.952Z,16.37
2022-10-23T01:22:09.303Z,16.43
2022-10-23T01:24:37.605Z,16.30
2022-10-23T01:27:25.372Z,16.35
2022-10-23T01:30:00.586Z,16.48
2022-10-23T01:32:43.274Z,16.29
2022-10-23T01:35:10.962Z,16.14
2022-10-23T01:37:58.551Z,16.08
2022-10-23T01:40:32.083Z,16.18
2022-10-23T01:43:01.557Z,16.29
2022-10-23T01:45:34.516Z,16.40
2022-10-23T01:48:02.733Z,16.17
2022-10-23T01:50:31.508Z,15.97
2022-10-23T01:53:03.836Z,16.07
2022-10-23T01:55:32.799Z,16.18
2022-10-23T01:58:03.618Z,16.24
2022-10-23T02:00:39.805Z,16.28
2022-10-23T02:03:08.929Z,16.31
2022-10-23T02:05:36.241Z,16.32
2022-10-23T02:08:05.147Z,16.33
2022-10-23T02:10:41.909Z,16.35
2022-10-23T02:13:12.681Z,16.31
2022-10-23T02:15:48.154Z,16.31
2022-10-23T02:18:25.532Z,16.17
2022-10-23T02:20:56.567Z,16.12
2022-10-23T02:23:28.880Z,16.06
2022-10-23T02:25:58.836Z,15.91
2022-10-23T02:28:28.971Z,15.77
2022-10-23T02:31:36.115Z,15.86
2022-10-23T02:34:03.476Z,15.97
2022-10-23T02:36:30.592Z,15.97
2022-10-23T02:38:58.164Z,15.86
2022-10-23T02:41:25.259Z,15.91
2022-10-23T02:44:02.840Z,15.93
2022-10-23T02:46:41.705Z,15.80
2022-10-23T02:49:11.946Z,15.75
2022-10-23T02:51:45.429Z,15.73
2022-10-23T02:54:18.761Z,15.83
2022-10-23T02:56:53.648Z,15.90
2022-10-23T02:59:31.144Z,15.97
2022-10-23T03:02:04.169Z,15.99
2022-10-23T03:04:32.078Z,16.05
2022-10-23T03:06:59.178Z,16.08
2022-10-23T03:09:26.368Z,16.03
2022-10-23T03:11:53.564Z,15.88
2022-10-23T03:14:20.698Z,15.83
2022-10-23T03:16:47.853Z,15.84
2022-10-23T03:19:15.025Z,15.87
2022-10-23T03:21:42.168Z,15.94
2022-10-23T03:24:09.300Z,15.99
2022-10-23T03:26:42.764Z,16.04
2022-10-23T03:29:10.307Z,16.10
2022-10-23T03:31:43.472Z,16.11
2022-10-23T03:34:11.737Z,16.09
2022-10-23T03:36:41.131Z,15.91
2022-10-23T03:39:09.862Z,15.80
2022-10-23T03:41:37.336Z,15.87
2022-10-23T03:46:37.145Z,16.00
2022-10-23T03:49:05.754Z,15.99
2022-10-23T03:51:33.069Z,15.98
2022-10-23T03:54:00.402Z,16.03
2022-10-23T03:56:27.655Z,16.03
2022-10-23T03:58:54.876Z,16.07
2022-10-23T04:01:24.496Z,16.09
2022-10-23T04:03:51.851Z,16.02
2022-10-23T04:06:19.226Z,16.00
2022-10-23T04:08:46.419Z,15.91
2022-10-23T04:11:16.208Z,15.85
2022-10-23T04:13:46.617Z,15.93
2022-10-23T04:16:13.854Z,15.91
2022-10-23T04:18:41.762Z,15.89
2022-10-23T04:21:10.704Z,15.90
2022-10-23T04:23:38.961Z,15.94
2022-10-23T04:26:11.516Z,15.96
2022-10-23T04:28:38.820Z,15.97
2022-10-23T04:31:06.081Z,16.03
2022-10-23T04:33:33.870Z,15.85
2022-10-23T04:36:01.082Z,15.87
2022-10-23T04:38:28.429Z,15.90
2022-10-23T04:40:55.602Z,15.97
2022-10-23T04:43:23.405Z,15.97
2022-10-23T04:45:50.727Z,15.99
2022-10-23T04:48:17.982Z,16.00
2022-10-23T04:51:10.988Z,15.86
2022-10-23T04:54:02.218Z,15.78
2022-10-23T04:56:43.421Z,15.83
2022-10-23T04:59:16.854Z,15.87
2022-10-23T05:01:44.543Z,15.86
2022-10-23T05:04:11.951Z,15.95
2022-10-23T05:06:59.134Z,15.98
2022-10-23T05:09:44.600Z,16.00
2022-10-23T05:12:27.513Z,16.03
2022-10-23T05:14:54.861Z,16.05
2022-10-23T05:17:32.194Z,16.06
2022-10-23T05:20:00.940Z,16.00
2022-10-23T05:22:30.865Z,15.95
2022-10-23T05:24:58.490Z,16.03
2022-10-23T05:27:26.928Z,16.05
2022-10-23T05:29:55.949Z,16.03
2022-10-23T05:32:27.692Z,16.10
2022-10-23T05:34:55.508Z,16.12
2022-10-23T05:37:26.682Z,16.09
2022-10-23T05:40:03.625Z,16.01
2022-10-23T05:42:32.552Z,15.79
2022-10-23T05:44:59.791Z,15.61
2022-10-23T05:48:10.935Z,15.71
2022-10-23T05:51:04.498Z,15.77
2022-10-23T05:53:42.549Z,15.80
2022-10-23T05:56:18.986Z,15.81
2022-10-23T05:59:07.746Z,15.83
2022-10-23T06:01:52.975Z,15.83
2022-10-23T06:04:31.769Z,15.83
2022-10-23T06:07:30.202Z,15.62
2022-10-23T06:10:01.270Z,15.67
2022-10-23T06:12:28.556Z,15.74
2022-10-23T06:14:55.770Z,15.82
2022-10-23T06:17:29.229Z,15.83
2022-10-23T06:20:00.906Z,15.85
2022-10-23T06:22:29.132Z,15.90
2022-10-23T06:25:09.637Z,15.87
2022-10-23T06:27:36.892Z,15.83
2022-10-23T06:30:07.261Z,15.88
2022-10-23T06:32:34.439Z,15.95
2022-10-23T06:35:11.475Z,16.02
2022-10-23T06:37:39.136Z,15.98
2022-10-23T06:40:11.053Z,16.04
2022-10-23T06:42:57.543Z,16.11
2022-10-23T06:45:47.969Z,16.18
2022-10-23T06:48:15.352Z,16.26
2022-10-23T06:50:48.374Z,16.30
2022-10-23T06:53:20.560Z,16.34
2022-10-23T06:55:58.740Z,16.41
2022-10-23T06:58:26.017Z,16.47
2022-10-23T07:01:12.470Z,16.50
2022-10-23T07:03:41.928Z,16.58
2022-10-23T07:06:10.216Z,16.64
2022-10-23T07:08:38.406Z,16.68
2022-10-23T07:11:18.099Z,16.68
2022-10-23T07:13:48.878Z,16.75
2022-10-23T07:16:19.421Z,16.73
2022-10-23T07:18:47.308Z,16.83
2022-10-23T07:21:30.128Z,16.92
2022-10-23T07:24:08.770Z,16.97
2022-10-23T07:26:39.614Z,17.04
2022-10-23T07:29:07.582Z,17.09
2022-10-23T07:32:01.065Z,17.17
2022-10-23T07:34:46.913Z,17.25
2022-10-23T07:37:30.461Z,17.29
2022-10-23T07:39:59.978Z,17.39
2022-10-23T07:42:27.521Z,17.46
2022-10-23T07:44:54.686Z,17.51
2022-10-23T07:47:22.924Z,17.66
2022-10-23T07:49:52.033Z,18.07
2022-10-23T07:52:20.692Z,18.38
2022-10-23T07:55:07.424Z,18.69
2022-10-23T07:57:37.988Z,18.99
2022-10-23T08:00:15.912Z,19.08
2022-10-23T08:02:52.788Z,19.29
2022-10-23T08:05:20.521Z,19.96
2022-10-23T08:07:54.368Z,20.56
2022-10-23T08:10:22.955Z,20.39
2022-10-23T08:12:50.117Z,19.88
2022-10-23T08:15:20.806Z,19.51
2022-10-23T08:17:55.387Z,19.11
2022-10-23T08:20:59.706Z,18.65
2022-10-23T08:23:27.877Z,18.78
2022-10-23T08:25:59.155Z,18.79
2022-10-23T08:28:27.034Z,18.61
2022-10-23T08:30:56.327Z,18.55
2022-10-23T08:33:24.917Z,18.51
2022-10-23T08:35:52.564Z,18.46
2022-10-23T08:38:29.030Z,18.42
2022-10-23T08:40:57.030Z,18.41
2022-10-23T08:43:53.198Z,18.40
2022-10-23T08:46:40.788Z,18.51
2022-10-23T08:49:51.163Z,18.82
2022-10-23T08:52:35.236Z,19.12
2022-10-23T08:55:07.506Z,19.26
2022-10-23T08:57:41.273Z,19.26
2022-10-23T09:00:13.885Z,19.26
2022-10-23T09:02:49.370Z,19.24
2022-10-23T09:05:19.325Z,19.22
2022-10-23T09:07:52.245Z,19.32
2022-10-23T09:10:22.259Z,19.37
2022-10-23T09:12:49.612Z,19.39
2022-10-23T09:15:35.933Z,19.51
2022-10-23T09:18:11.298Z,19.59
2022-10-23T09:20:39.770Z,19.72
2022-10-23T09:23:12.787Z,19.84
2022-10-23T09:25:40.588Z,19.93
2022-10-23T09:28:15.272Z,19.96
2022-10-23T09:30:42.642Z,19.94
2022-10-23T09:33:30.867Z,19.96
2022-10-23T09:35:59.537Z,20.02
2022-10-23T09:38:31.529Z,19.98
2022-10-23T09:41:06.152Z,19.92
2022-10-23T09:43:33.318Z,19.95
2022-10-23T09:46:07.067Z,20.01
2022-10-23T09:48:36.535Z,20.05
2022-10-23T09:51:04.832Z,20.16
2022-10-23T09:53:34.104Z,20.22
2022-10-23T09:56:07.910Z,20.29
2022-10-23T09:58:40.105Z,20.33
2022-10-23T10:01:07.371Z,20.30
2022-10-23T10:03:50.900Z,20.33
2022-10-23T10:06:26.213Z,20.35
2022-10-23T10:08:55.688Z,20.43
2022-10-23T10:11:28.286Z,20.47
2022-10-23T10:13:55.807Z,20.38
2022-10-23T10:16:26.897Z,20.38
2022-10-23T10:19:05.904Z,20.39
2022-10-23T10:21:51.402Z,20.45
2022-10-23T10:24:21.994Z,20.51
2022-10-23T10:26:57.088Z,20.53
2022-10-23T10:29:29.778Z,20.49
2022-10-23T10:32:22.144Z,20.45
2022-10-23T10:35:02.853Z,20.57
2022-10-23T10:37:47.340Z,20.62
2022-10-23T10:40:23.348Z,20.61
2022-10-23T10:43:09.230Z,20.65
2022-10-23T10:45:47.018Z,20.61
2022-10-23T10:48:21.144Z,20.61
2022-10-23T10:51:08.572Z,20.61
2022-10-23T10:53:52.187Z,20.60
2022-10-23T10:56:20.736Z,20.68
2022-10-23T10:58:53.812Z,20.68
2022-10-23T11:01:35.799Z,20.65
2022-10-23T11:04:18.141Z,20.70
2022-10-23T11:06:48.561Z,20.78
2022-10-23T11:09:26.860Z,20.81
2022-10-23T11:11:54.220Z,20.88
2022-10-23T11:14:23.056Z,21.05
2022-10-23T11:16:57.236Z,21.16
2022-10-23T11:19:26.497Z,21.07
2022-10-23T11:21:59.493Z,21.09
2022-10-23T11:24:44.109Z,21.14
2022-10-23T11:27:32.977Z,21.09
2022-10-23T11:30:18.930Z,21.15
2022-10-23T11:32:49.703Z,21.13
2022-10-23T11:35:20.054Z,21.08
2022-10-23T11:37:57.328Z,21.08
2022-10-23T11:40:25.597Z,21.11
2022-10-23T11:42:53.006Z,21.18
2022-10-23T11:45:27.472Z,21.25
2022-10-23T11:47:58.759Z,21.31
2022-10-23T11:50:33.494Z,21.35
2022-10-23T11:53:20.878Z,21.40
2022-10-23T11:56:00.475Z,21.42
2022-10-23T11:58:44.220Z,21.45
2022-10-23T12:01:30.284Z,21.50
2022-10-23T12:04:03.189Z,21.41
2022-10-23T12:06:39.946Z,21.39
2022-10-23T12:09:22.594Z,21.45
2022-10-23T12:12:01.326Z,21.51
2022-10-23T12:14:33.466Z,21.55
2022-10-23T12:17:00.733Z,21.50
2022-10-23T12:19:29.967Z,21.43
2022-10-23T12:21:59.444Z,21.50
2022-10-23T12:24:39.902Z,21.61
2022-10-23T12:27:31.221Z,21.65
2022-10-23T12:30:14.229Z,21.65
2022-10-23T12:32:47.453Z,21.62
2022-10-23T12:35:17.781Z,21.78
2022-10-23T12:38:03.533Z,21.67
2022-10-23T12:40:30.925Z,21.70
2022-10-23T12:42:59.828Z,21.76
2022-10-23T12:45:29.210Z,21.76
2022-10-23T12:47:56.456Z,21.75
2022-10-23T12:50:28.380Z,21.67
2022-10-23T12:53:01.119Z,21.66
2022-10-23T12:55:46.899Z,21.66
2022-10-23T12:58:21.376Z,21.67
2022-10-23T13:00:50.927Z,21.75
2022-10-23T13:03:20.195Z,21.81
2022-10-23T13:05:47.753Z,21.86
2022-10-23T13:08:14.921Z,21.79
2022-10-23T13:11:01.333Z,21.71
2022-10-23T13:13:30.526Z,21.58
2022-10-23T13:15:57.703Z,21.51
2022-10-23T13:18:24.964Z,21.45
2022-10-23T13:20:52.192Z,21.40
2022-10-23T13:23:19.424Z,21.37
2022-10-23T13:25:56.938Z,21.35
2022-10-23T13:28:33.287Z,21.33
2022-10-23T13:31:03.472Z,21.32
2022-10-23T13:33:35.025Z,21.33
2022-10-23T13:36:05.365Z,21.36
2022-10-23T13:38:34.903Z,21.42
2022-10-23T13:41:04.156Z,21.46
2022-10-23T13:43:32.936Z,21.50
2022-10-23T13:46:00.379Z,21.54
2022-10-23T13:48:28.095Z,21.57
2022-10-23T13:51:01.080Z,21.60
2022-10-23T13:53:28.178Z,21.59
2022-10-23T13:55:57.926Z,21.60
2022-10-23T13:58:25.985Z,21.59
2022-10-23T14:00:53.662Z,21.58
2022-10-23T14:03:24.324Z,21.61
2022-10-23T14:05:51.753Z,21.58
2022-10-23T14:08:19.252Z,21.57
2022-10-23T14:10:46.560Z,21.59
2022-10-23T14:13:13.810Z,21.62
2022-10-23T14:15:40.942Z,21.60
2022-10-23T14:18:08.531Z,21.57
2022-10-23T14:20:37.960Z,21.53
2022-10-23T14:23:05.095Z,21.51
2022-10-23T14:25:32.290Z,21.48
2022-10-23T14:27:59.385Z,21.50
2022-10-23T14:30:26.553Z,21.51
2022-10-23T14:32:53.781Z,21.50
2022-10-23T14:35:20.928Z,21.51
2022-10-23T14:37:48.276Z,21.48
2022-10-23T14:40:15.538Z,21.46
2022-10-23T14:42:42.720Z,21.46
2022-10-23T14:45:10.268Z,21.46
2022-10-23T14:47:37.427Z,21.48
2022-10-23T14:50:04.793Z,21.47
2022-10-23T14:52:31.926Z,21.46
2022-10-23T14:55:00.671Z,21.46
2022-10-23T14:57:28.084Z,21.44
2022-10-23T14:59:55.339Z,21.46
2022-10-23T15:02:22.494Z,21.48
2022-10-23T15:04:49.642Z,21.47
2022-10-23T15:07:16.820Z,21.45
2022-10-23T15:09:44.438Z,21.47
2022-10-23T15:12:11.647Z,21.48
2022-10-23T15:14:38.954Z,21.52
2022-10-23T15:17:06.203Z,21.51
2022-10-23T15:19:33.525Z,21.44
2022-10-23T15:22:00.809Z,21.39
2022-10-23T15:24:28.006Z,21.36
2022-10-23T15:26:55.168Z,21.35
2022-10-23T15:29:23.089Z,21.36
2022-10-23T15:31:55.569Z,21.33
2022-10-23T15:34:23.989Z,21.30
2022-10-23T15:36:51.263Z,21.29
2022-10-23T15:39:20.460Z,21.25
2022-10-23T15:41:47.821Z,21.22
2022-10-23T15:44:16.212Z,21.19
2022-10-23T15:46:43.836Z,21.15
2022-10-23T15:49:11.066Z,21.14
2022-10-23T15:51:38.952Z,21.12
2022-10-23T15:54:07.156Z,21.11
2022-10-23T15:56:34.935Z,21.09
2022-10-23T15:59:02.329Z,21.04
2022-10-23T16:01:29.609Z,21.00
2022-10-23T16:03:56.951Z,20.98
2022-10-23T16:06:24.186Z,20.93
2022-10-23T16:08:51.491Z,20.90
2022-10-23T16:11:20.785Z,20.88
2022-10-23T16:13:47.978Z,20.84
2022-10-23T16:16:15.278Z,20.80
2022-10-23T16:18:43.740Z,20.74
2022-10-23T16:21:24.421Z,20.71
2022-10-23T16:23:52.603Z,20.68
2022-10-23T16:26:20.218Z,20.62
2022-10-23T16:28:47.646Z,20.57
2022-10-23T16:31:19.352Z,20.54
2022-10-23T16:33:48.617Z,20.50
2022-10-23T16:36:16.252Z,20.45
2022-10-23T16:39:03.213Z,20.44
2022-10-23T16:41:49.222Z,20.41
2022-10-23T16:44:19.446Z,20.38
2022-10-23T16:46:58.033Z,20.34
2022-10-23T16:49:43.731Z,20.33
2022-10-23T16:52:10.988Z,20.30
2022-10-23T16:54:38.129Z,20.26
2022-10-23T16:57:05.318Z,20.26
2022-10-23T16:59:32.490Z,20.22
2022-10-23T17:01:59.796Z,20.20
2022-10-23T17:04:27.166Z,20.21
2022-10-23T17:06:54.354Z,20.20
2022-10-23T17:09:21.605Z,20.24
2022-10-23T17:11:51.004Z,20.23
2022-10-23T17:14:19.715Z,20.19
2022-10-23T17:16:48.237Z,20.11
2022-10-23T17:19:33.052Z,20.02
2022-10-23T17:22:10.523Z,20.02
2022-10-23T17:24:38.749Z,19.98
2022-10-23T17:27:05.981Z,19.92
2022-10-23T17:29:33.177Z,19.85
2022-10-23T17:32:00.383Z,19.81
2022-10-23T17:34:27.796Z,19.81
2022-10-23T17:36:55.248Z,19.73
2022-10-23T17:39:24.292Z,19.66
2022-10-23T17:41:51.744Z,19.71
2022-10-23T17:44:19.154Z,19.69
2022-10-23T17:46:46.341Z,19.66
2022-10-23T17:49:13.521Z,19.65
2022-10-23T17:51:40.694Z,19.68
2022-10-23T17:54:09.174Z,19.64
2022-10-23T17:56:37.702Z,19.53
2022-10-23T17:59:07.086Z,19.49
2022-10-23T18:01:34.346Z,19.43
2022-10-23T18:04:02.925Z,19.37
2022-10-23T18:06:34.939Z,19.35
2022-10-23T18:09:03.857Z,19.32
2022-10-23T18:11:32.340Z,19.26
2022-10-23T18:16:33.403Z,19.24
2022-10-23T18:19:01.076Z,19.24
2022-10-23T18:21:28.724Z,19.12
2022-10-23T18:23:55.921Z,19.03
2022-10-23T18:26:24.196Z,18.98
2022-10-23T18:28:52.607Z,18.93
2022-10-23T18:31:20.043Z,18.83
2022-10-23T18:33:47.353Z,18.81
2022-10-23T18:36:15.762Z,18.78
2022-10-23T18:38:43.050Z,18.73
2022-10-23T18:41:10.253Z,18.69
2022-10-23T18:43:43.747Z,18.67
2022-10-23T18:46:15.273Z,18.60
2022-10-23T18:48:43.479Z,18.50
2022-10-23T18:51:21.584Z,18.42
2022-10-23T18:53:49.216Z,18.34
2022-10-23T18:56:21.822Z,18.37
2022-10-23T18:58:52.653Z,18.36
2022-10-23T19:01:20.131Z,18.34
2022-10-23T19:03:47.841Z,18.35
2022-10-23T19:06:15.274Z,18.36
2022-10-23T19:08:43.719Z,18.38
2022-10-23T19:11:11.962Z,18.37
2022-10-23T19:13:40.766Z,18.25
2022-10-23T19:16:14.708Z,18.09
2022-10-23T19:18:43.876Z,18.02
2022-10-23T19:21:11.647Z,18.05
2022-10-23T19:23:40.926Z,18.03
2022-10-23T19:26:10.994Z,17.92
2022-10-23T19:28:40.152Z,17.95
2022-10-23T19:31:10.274Z,17.87
2022-10-23T19:33:39.542Z,17.65
2022-10-23T19:36:11.150Z,17.72
2022-10-23T19:38:42.198Z,17.77
2022-10-23T19:41:10.257Z,17.83
2022-10-23T19:43:42.738Z,17.69
2022-10-23T19:46:12.172Z,17.44
2022-10-23T19:48:43.599Z,17.43
2022-10-23T19:51:13.325Z,17.54
2022-10-23T19:53:42.298Z,17.62
2022-10-23T19:56:11.272Z,17.63
2022-10-23T19:58:39.197Z,17.66
2022-10-23T20:01:07.929Z,17.72
2022-10-23T20:03:38.194Z,17.76
2022-10-23T20:06:08.520Z,17.70
2022-10-23T20:08:36.365Z,17.74
2022-10-23T20:11:04.178Z,17.84
2022-10-23T20:13:31.947Z,17.90
2022-10-23T20:15:59.194Z,17.91
2022-10-23T20:18:26.457Z,17.81
2022-10-23T20:20:53.778Z,17.66
2022-10-23T20:23:21.043Z,17.62
2022-10-23T20:25:48.315Z,17.62
2022-10-23T20:28:15.630Z,17.62
2022-10-23T20:30:44.067Z,17.61
2022-10-23T20:33:11.611Z,17.46
2022-10-23T20:35:42.654Z,17.44
2022-10-23T20:38:10.349Z,17.54
2022-10-23T20:40:37.540Z,17.51
2022-10-23T20:43:04.804Z,17.45
2022-10-23T20:45:32.011Z,17.30
2022-10-23T20:47:59.210Z,17.34
2022-10-23T20:50:26.339Z,17.46
2022-10-23T20:52:53.482Z,17.41
2022-10-23T20:55:20.667Z,17.37
2022-10-23T20:57:47.914Z,17.36
2022-10-23T21:00:15.731Z,17.38
2022-10-23T21:02:45.969Z,17.41
2022-10-23T21:05:15.644Z,17.40
2022-10-23T21:07:42.901Z,17.34
2022-10-23T21:10:10.210Z,17.19
2022-10-23T21:12:37.440Z,17.13
2022-10-23T21:15:04.817Z,16.86
2022-10-23T21:17:35.863Z,16.74
2022-10-23T21:20:03.574Z,16.81
2022-10-23T21:22:31.001Z,16.91
2022-10-23T21:25:00.084Z,16.96
2022-10-23T21:27:27.427Z,16.85
2022-10-23T21:29:54.657Z,16.87
2022-10-23T21:32:22.215Z,16.95
2022-10-23T21:34:49.637Z,17.00
2022-10-23T21:37:16.786Z,17.02
2022-10-23T21:39:44.199Z,17.06
2022-10-23T21:42:12.473Z,17.10
2022-10-23T21:44:39.672Z,16.86
2022-10-23T21:47:07.315Z,16.74
2022-10-23T21:49:34.512Z,16.80
2022-10-23T21:52:01.692Z,16.84
2022-10-23T21:54:28.889Z,16.86
2022-10-23T21:56:56.095Z,16.92
2022-10-23T21:59:25.873Z,16.97
2022-10-23T22:01:55.277Z,16.96
2022-10-23T22:04:22.553Z,16.96
2022-10-23T22:06:50.110Z,16.95
2022-10-23T22:09:19.468Z,16.91
2022-10-23T22:11:49.189Z,16.84
2022-10-23T22:14:16.361Z,16.80
2022-10-23T22:16:43.579Z,16.76
2022-10-23T22:19:11.993Z,16.76
2022-10-23T22:21:39.226Z,16.72
2022-10-23T22:24:06.726Z,16.75
2022-10-23T22:26:36.142Z,16.74
2022-10-23T22:29:07.519Z,16.46
2022-10-23T22:31:35.281Z,16.35
2022-10-23T22:34:13.266Z,16.20
2022-10-23T22:36:51.036Z,16.13
2022-10-23T22:39:18.292Z,16.28
2022-10-23T22:41:45.575Z,16.48
2022-10-23T22:44:12.853Z,16.56
2022-10-23T22:46:40.470Z,16.61
2022-10-23T22:49:07.766Z,16.64
2022-10-23T22:51:34.951Z,16.59
2022-10-23T22:54:02.123Z,16.48
2022-10-23T22:56:30.421Z,16.54
2022-10-23T22:58:57.914Z,16.60
2022-10-23T23:01:27.078Z,16.41
2022-10-23T23:03:54.390Z,16.22
2022-10-23T23:06:22.416Z,16.22
2022-10-23T23:08:50.213Z,16.01
2022-10-23T23:11:18.366Z,15.99
2022-10-23T23:13:46.130Z,16.07
2022-10-23T23:16:17.658Z,16.10
2022-10-23T23:18:44.962Z,16.27
2022-10-23T23:21:12.189Z,16.39
2022-10-23T23:23:39.390Z,16.40
2022-10-23T23:26:07.257Z,16.12
2022-10-23T23:28:34.458Z,15.92
2022-10-23T23:31:12.126Z,15.81
2022-10-23T23:33:39.315Z,15.89
2022-10-23T23:36:10.497Z,15.95
2022-10-23T23:38:38.287Z,15.94
2022-10-23T23:41:06.065Z,15.89
2022-10-23T23:43:33.144Z,16.02
2022-10-23T23:46:00.333Z,16.13
2022-10-23T23:48:27.618Z,16.21
2022-10-23T23:50:54.762Z,16.22
2022-10-23T23:53:21.907Z,16.17
2022-10-23T23:55:49.224Z,16.27
2022-10-23T23:58:16.309Z,16.28
